sensor_id;sensor_type;location;lat;lon;timestamp;pressure;altitude;pressure_sealevel;temperature;humidity
70815;BME280;58428;49.478;10.986;2022-09-29T00:00:30;96977.38;;;7.74;87.93
70815;BME280;58428;49.478;10.986;2022-09-29T00:02:55;96979.28;;;7.73;88.09
70815;BME280;58428;49.478;10.986;2022-09-29T00:05:21;96975.47;;;7.74;87.78
70815;BME280;58428;49.478;10.986;2022-09-29T00:07:48;96975.94;;;7.76;87.91
70815;BME280;58428;49.478;10.986;2022-09-29T00:10:31;96979.84;;;7.79;88.04
70815;BME280;58428;49.478;10.986;2022-09-29T00:12:57;96975.94;;;7.76;88.06
70815;BME280;58428;49.478;10.986;2022-09-29T00:15:23;96974.25;;;7.72;88.04
70815;BME280;58428;49.478;10.986;2022-09-29T00:17:48;96970.88;;;7.75;88.44
70815;BME280;58428;49.478;10.986;2022-09-29T00:20:14;96967.94;;;7.80;88.25
70815;BME280;58428;49.478;10.986;2022-09-29T00:22:40;96960.16;;;7.90;88.34
70815;BME280;58428;49.478;10.986;2022-09-29T00:25:06;96969.44;;;7.93;87.97
70815;BME280;58428;49.478;10.986;2022-09-29T00:27:31;96967.97;;;7.95;88.62
70815;BME280;58428;49.478;10.986;2022-09-29T00:29:57;96970.00;;;7.98;87.86
70815;BME280;58428;49.478;10.986;2022-09-29T00:32:22;96973.81;;;7.97;88.18
70815;BME280;58428;49.478;10.986;2022-09-29T00:34:48;96971.31;;;8.04;88.23
70815;BME280;58428;49.478;10.986;2022-09-29T00:37:15;96968.06;;;8.10;88.46
70815;BME280;58428;49.478;10.986;2022-09-29T00:39:41;96972.16;;;8.20;87.76
70815;BME280;58428;49.478;10.986;2022-09-29T00:42:10;96973.63;;;8.17;87.50
70815;BME280;58428;49.478;10.986;2022-09-29T00:47:27;96980.75;;;8.10;87.25
70815;BME280;58428;49.478;10.986;2022-09-29T00:50:02;96972.31;;;8.11;87.65
70815;BME280;58428;49.478;10.986;2022-09-29T00:52:36;96975.13;;;8.15;87.23
70815;BME280;58428;49.478;10.986;2022-09-29T00:55:14;96969.28;;;8.13;87.21
70815;BME280;58428;49.478;10.986;2022-09-29T00:58:02;96973.88;;;8.12;87.52
70815;BME280;58428;49.478;10.986;2022-09-29T01:00:32;96984.31;;;8.14;87.33
70815;BME280;58428;49.478;10.986;2022-09-29T01:03:06;96969.38;;;8.16;87.42
70815;BME280;58428;49.478;10.986;2022-09-29T01:05:39;96973.56;;;8.29;87.73
70815;BME280;58428;49.478;10.986;2022-09-29T01:08:15;96972.88;;;8.32;87.02
70815;BME280;58428;49.478;10.986;2022-09-29T01:10:42;96973.19;;;8.15;87.19
70815;BME280;58428;49.478;10.986;2022-09-29T01:13:08;96971.13;;;8.24;87.23
70815;BME280;58428;49.478;10.986;2022-09-29T01:15:33;96970.25;;;8.36;86.87
70815;BME280;58428;49.478;10.986;2022-09-29T01:17:59;96974.63;;;8.25;86.92
70815;BME280;58428;49.478;10.986;2022-09-29T01:20:26;96975.50;;;8.29;86.89
70815;BME280;58428;49.478;10.986;2022-09-29T01:23:07;96975.63;;;8.20;86.83
70815;BME280;58428;49.478;10.986;2022-09-29T01:28:43;96972.44;;;8.15;86.95
70815;BME280;58428;49.478;10.986;2022-09-29T01:34:37;96972.53;;;8.06;87.15
70815;BME280;58428;49.478;10.986;2022-09-29T01:42:30;96972.16;;;8.20;87.35
70815;BME280;58428;49.478;10.986;2022-09-29T01:44:59;96979.47;;;8.19;86.88
70815;BME280;58428;49.478;10.986;2022-09-29T01:47:39;96978.34;;;8.08;86.93
70815;BME280;58428;49.478;10.986;2022-09-29T01:50:17;96988.50;;;8.00;87.24
70815;BME280;58428;49.478;10.986;2022-09-29T01:52:50;96981.44;;;7.95;86.96
70815;BME280;58428;49.478;10.986;2022-09-29T01:55:22;96988.75;;;7.95;87.66
70815;BME280;58428;49.478;10.986;2022-09-29T01:58:14;96979.28;;;8.01;87.57
70815;BME280;58428;49.478;10.986;2022-09-29T02:00:54;96974.25;;;8.11;87.45
70815;BME280;58428;49.478;10.986;2022-09-29T02:06:03;96972.97;;;8.08;87.37
70815;BME280;58428;49.478;10.986;2022-09-29T02:08:55;96974.88;;;8.08;87.30
70815;BME280;58428;49.478;10.986;2022-09-29T02:11:23;96970.00;;;7.98;87.42
70815;BME280;58428;49.478;10.986;2022-09-29T02:16:47;96980.06;;;8.01;87.56
70815;BME280;58428;49.478;10.986;2022-09-29T02:19:20;96981.22;;;8.00;87.42
70815;BME280;58428;49.478;10.986;2022-09-29T02:21:47;96976.88;;;7.96;87.61
70815;BME280;58428;49.478;10.986;2022-09-29T02:24:13;96985.16;;;7.91;87.65
70815;BME280;58428;49.478;10.986;2022-09-29T02:26:39;96988.31;;;7.93;87.91
70815;BME280;58428;49.478;10.986;2022-09-29T02:29:06;96984.56;;;7.97;87.62
70815;BME280;58428;49.478;10.986;2022-09-29T02:31:33;96988.50;;;8.00;88.02
70815;BME280;58428;49.478;10.986;2022-09-29T02:34:00;96990.16;;;8.04;87.50
70815;BME280;58428;49.478;10.986;2022-09-29T02:37:06;96983.19;;;8.03;87.61
70815;BME280;58428;49.478;10.986;2022-09-29T02:47:41;96990.91;;;8.16;87.74
70815;BME280;58428;49.478;10.986;2022-09-29T02:56:24;96985.88;;;8.03;87.65
70815;BME280;58428;49.478;10.986;2022-09-29T02:59:02;96980.94;;;8.05;87.93
70815;BME280;58428;49.478;10.986;2022-09-29T03:01:30;96978.69;;;8.07;87.62
70815;BME280;58428;49.478;10.986;2022-09-29T03:03:56;96978.50;;;8.00;87.58
70815;BME280;58428;49.478;10.986;2022-09-29T03:06:23;96975.44;;;7.86;87.68
70815;BME280;58428;49.478;10.986;2022-09-29T03:08:50;96975.97;;;7.92;87.80
70815;BME280;58428;49.478;10.986;2022-09-29T03:11:17;96985.28;;;7.94;88.08
70815;BME280;58428;49.478;10.986;2022-09-29T03:13:46;96972.47;;;7.91;87.82
70815;BME280;58428;49.478;10.986;2022-09-29T03:16:13;96974.50;;;7.94;87.65
70815;BME280;58428;49.478;10.986;2022-09-29T03:18:38;96975.53;;;7.90;87.52
70815;BME280;58428;49.478;10.986;2022-09-29T03:21:04;96970.53;;;7.76;87.72
70815;BME280;58428;49.478;10.986;2022-09-29T03:23:29;96977.09;;;7.64;87.77
70815;BME280;58428;49.478;10.986;2022-09-29T03:25:55;96984.16;;;7.56;87.44
70815;BME280;58428;49.478;10.986;2022-09-29T03:28:21;96982.50;;;7.52;88.17
70815;BME280;58428;49.478;10.986;2022-09-29T03:30:46;96980.41;;;7.45;88.11
70815;BME280;58428;49.478;10.986;2022-09-29T03:33:11;96988.47;;;7.45;88.33
70815;BME280;58428;49.478;10.986;2022-09-29T03:35:38;96988.34;;;7.42;88.94
70815;BME280;58428;49.478;10.986;2022-09-29T03:38:03;96984.34;;;7.36;88.40
70815;BME280;58428;49.478;10.986;2022-09-29T03:40:29;96983.13;;;7.33;88.87
70815;BME280;58428;49.478;10.986;2022-09-29T03:42:54;96987.69;;;7.33;89.29
70815;BME280;58428;49.478;10.986;2022-09-29T03:45:19;96980.94;;;7.39;89.45
70815;BME280;58428;49.478;10.986;2022-09-29T03:47:48;96993.00;;;7.57;89.72
70815;BME280;58428;49.478;10.986;2022-09-29T03:50:14;96986.75;;;7.53;89.54
70815;BME280;58428;49.478;10.986;2022-09-29T03:52:43;96994.03;;;7.52;89.63
70815;BME280;58428;49.478;10.986;2022-09-29T03:55:10;96993.94;;;7.49;89.59
70815;BME280;58428;49.478;10.986;2022-09-29T03:57:36;96992.72;;;7.34;89.39
70815;BME280;58428;49.478;10.986;2022-09-29T04:00:03;96997.00;;;7.24;89.88
70815;BME280;58428;49.478;10.986;2022-09-29T04:02:29;97000.50;;;7.24;89.57
70815;BME280;58428;49.478;10.986;2022-09-29T04:04:54;96996.56;;;7.22;89.79
70815;BME280;58428;49.478;10.986;2022-09-29T04:07:20;97000.59;;;7.16;90.37
70815;BME280;58428;49.478;10.986;2022-09-29T04:09:45;96996.69;;;7.13;90.51
70815;BME280;58428;49.478;10.986;2022-09-29T04:12:12;96998.59;;;7.13;90.57
70815;BME280;58428;49.478;10.986;2022-09-29T04:14:37;96995.47;;;7.11;90.65
70815;BME280;58428;49.478;10.986;2022-09-29T04:17:03;97003.84;;;7.09;90.43
70815;BME280;58428;49.478;10.986;2022-09-29T04:19:32;96994.56;;;7.07;89.98
70815;BME280;58428;49.478;10.986;2022-09-29T04:22:01;96997.16;;;6.92;90.63
70815;BME280;58428;49.478;10.986;2022-09-29T04:24:26;96997.47;;;6.90;90.58
70815;BME280;58428;49.478;10.986;2022-09-29T04:26:52;97000.16;;;6.90;91.33
70815;BME280;58428;49.478;10.986;2022-09-29T04:29:18;96997.16;;;6.92;90.52
70815;BME280;58428;49.478;10.986;2022-09-29T04:31:47;97000.16;;;6.90;91.29
70815;BME280;58428;49.478;10.986;2022-09-29T04:34:13;97007.91;;;6.92;91.28
70815;BME280;58428;49.478;10.986;2022-09-29T04:36:38;97004.75;;;7.01;91.44
70815;BME280;58428;49.478;10.986;2022-09-29T04:39:08;96999.63;;;7.08;91.28
70815;BME280;58428;49.478;10.986;2022-09-29T04:41:33;97005.66;;;7.05;90.58
70815;BME280;58428;49.478;10.986;2022-09-29T04:44:02;97006.09;;;6.96;90.57
70815;BME280;58428;49.478;10.986;2022-09-29T04:46:36;97008.34;;;6.94;90.87
70815;BME280;58428;49.478;10.986;2022-09-29T04:49:02;97004.06;;;6.93;90.95
70815;BME280;58428;49.478;10.986;2022-09-29T04:51:29;96999.50;;;6.93;90.95
70815;BME280;58428;49.478;10.986;2022-09-29T04:53:58;96995.56;;;6.91;91.06
70815;BME280;58428;49.478;10.986;2022-09-29T04:56:36;97001.06;;;6.94;90.71
70815;BME280;58428;49.478;10.986;2022-09-29T04:59:14;96996.81;;;6.93;91.05
70815;BME280;58428;49.478;10.986;2022-09-29T05:01:39;96998.25;;;6.91;90.93
70815;BME280;58428;49.478;10.986;2022-09-29T05:04:07;97004.53;;;6.95;91.19
70815;BME280;58428;49.478;10.986;2022-09-29T05:06:35;96999.84;;;6.92;91.74
70815;BME280;58428;49.478;10.986;2022-09-29T05:09:05;96993.56;;;6.88;91.30
70815;BME280;58428;49.478;10.986;2022-09-29T05:11:33;96993.91;;;6.86;91.39
70815;BME280;58428;49.478;10.986;2022-09-29T05:13:58;97000.28;;;6.82;91.33
70815;BME280;58428;49.478;10.986;2022-09-29T05:16:26;97007.09;;;6.79;91.86
70815;BME280;58428;49.478;10.986;2022-09-29T05:18:52;97002.66;;;6.83;91.53
70815;BME280;58428;49.478;10.986;2022-09-29T05:21:20;97002.72;;;6.87;90.93
70815;BME280;58428;49.478;10.986;2022-09-29T05:23:46;97004.97;;;6.85;91.90
70815;BME280;58428;49.478;10.986;2022-09-29T05:26:13;97008.78;;;6.84;92.08
70815;BME280;58428;49.478;10.986;2022-09-29T05:28:43;97009.38;;;6.89;91.34
70815;BME280;58428;49.478;10.986;2022-09-29T05:31:09;97008.03;;;6.83;91.84
70815;BME280;58428;49.478;10.986;2022-09-29T05:33:36;97004.00;;;6.89;91.67
70815;BME280;58428;49.478;10.986;2022-09-29T05:36:10;96996.69;;;6.90;91.48
70815;BME280;58428;49.478;10.986;2022-09-29T05:38:39;97004.66;;;6.86;91.86
70815;BME280;58428;49.478;10.986;2022-09-29T05:41:07;96997.81;;;6.89;91.34
70815;BME280;58428;49.478;10.986;2022-09-29T05:43:34;96995.22;;;6.92;90.99
70815;BME280;58428;49.478;10.986;2022-09-29T05:46:02;96998.81;;;6.96;91.35
70815;BME280;58428;49.478;10.986;2022-09-29T05:48:29;97002.28;;;6.96;91.62
70815;BME280;58428;49.478;10.986;2022-09-29T05:50:55;96999.25;;;6.98;91.57
70815;BME280;58428;49.478;10.986;2022-09-29T05:53:21;97000.28;;;6.94;91.04
70815;BME280;58428;49.478;10.986;2022-09-29T05:55:47;97005.22;;;7.03;91.42
70815;BME280;58428;49.478;10.986;2022-09-29T05:58:13;97006.88;;;7.20;91.13
70815;BME280;58428;49.478;10.986;2022-09-29T06:00:40;97013.03;;;7.32;91.25
70815;BME280;58428;49.478;10.986;2022-09-29T06:03:05;97005.28;;;7.31;91.11
70815;BME280;58428;49.478;10.986;2022-09-29T06:05:31;97012.78;;;7.37;90.99
70815;BME280;58428;49.478;10.986;2022-09-29T06:07:57;97026.22;;;7.49;90.92
70815;BME280;58428;49.478;10.986;2022-09-29T06:10:23;97018.59;;;7.63;90.70
70815;BME280;58428;49.478;10.986;2022-09-29T06:12:48;97018.19;;;7.76;90.43
70815;BME280;58428;49.478;10.986;2022-09-29T06:15:14;97026.69;;;7.90;90.30
70815;BME280;58428;49.478;10.986;2022-09-29T06:17:40;97020.47;;;8.01;89.56
70815;BME280;58428;49.478;10.986;2022-09-29T06:20:06;97020.38;;;8.09;89.57
70815;BME280;58428;49.478;10.986;2022-09-29T06:22:32;97030.66;;;8.07;88.90
70815;BME280;58428;49.478;10.986;2022-09-29T06:24:59;97030.47;;;8.01;88.33
70815;BME280;58428;49.478;10.986;2022-09-29T06:27:24;97033.44;;;7.84;88.18
70815;BME280;58428;49.478;10.986;2022-09-29T06:29:50;97029.13;;;7.56;87.74
70815;BME280;58428;49.478;10.986;2022-09-29T06:32:16;97027.94;;;7.41;88.35
70815;BME280;58428;49.478;10.986;2022-09-29T06:34:42;97026.03;;;7.30;88.18
70815;BME280;58428;49.478;10.986;2022-09-29T06:37:26;97037.38;;;7.35;88.78
70815;BME280;58428;49.478;10.986;2022-09-29T06:40:06;97031.63;;;7.37;88.72
70815;BME280;58428;49.478;10.986;2022-09-29T06:42:33;97033.97;;;7.50;89.20
70815;BME280;58428;49.478;10.986;2022-09-29T06:44:58;97036.56;;;7.35;89.14
70815;BME280;58428;49.478;10.986;2022-09-29T06:50:11;97043.53;;;7.36;89.17
70815;BME280;58428;49.478;10.986;2022-09-29T06:52:36;97031.59;;;7.49;89.46
70815;BME280;58428;49.478;10.986;2022-09-29T06:55:02;97039.69;;;7.61;88.79
70815;BME280;58428;49.478;10.986;2022-09-29T06:57:29;97045.84;;;7.61;89.00
70815;BME280;58428;49.478;10.986;2022-09-29T06:59:54;97043.63;;;7.51;88.23
70815;BME280;58428;49.478;10.986;2022-09-29T07:02:22;97049.22;;;7.34;88.41
70815;BME280;58428;49.478;10.986;2022-09-29T07:04:48;97048.91;;;7.36;88.90
70815;BME280;58428;49.478;10.986;2022-09-29T07:07:14;97050.13;;;7.38;88.60
70815;BME280;58428;49.478;10.986;2022-09-29T07:09:40;97051.91;;;7.34;88.43
70815;BME280;58428;49.478;10.986;2022-09-29T07:12:08;97047.22;;;7.43;88.97
70815;BME280;58428;49.478;10.986;2022-09-29T07:14:33;97049.41;;;7.65;88.90
70815;BME280;58428;49.478;10.986;2022-09-29T07:17:00;97043.97;;;7.89;88.80
70815;BME280;58428;49.478;10.986;2022-09-29T07:19:25;97051.00;;;7.93;88.08
70815;BME280;58428;49.478;10.986;2022-09-29T07:21:50;97044.25;;;7.99;87.96
70815;BME280;58428;49.478;10.986;2022-09-29T07:24:47;97055.38;;;8.09;87.90
70815;BME280;58428;49.478;10.986;2022-09-29T07:27:15;97048.91;;;8.26;87.62
70815;BME280;58428;49.478;10.986;2022-09-29T07:29:43;97050.16;;;8.43;87.09
70815;BME280;58428;49.478;10.986;2022-09-29T07:32:10;97055.16;;;8.57;86.83
70815;BME280;58428;49.478;10.986;2022-09-29T07:34:35;97051.44;;;8.77;86.02
70815;BME280;58428;49.478;10.986;2022-09-29T07:37:00;97059.19;;;8.93;85.62
70815;BME280;58428;49.478;10.986;2022-09-29T07:39:28;97053.38;;;9.07;85.52
70815;BME280;58428;49.478;10.986;2022-09-29T07:41:54;97055.38;;;8.94;84.40
70815;BME280;58428;49.478;10.986;2022-09-29T07:44:20;97059.91;;;8.90;84.12
70815;BME280;58428;49.478;10.986;2022-09-29T07:46:48;97072.88;;;8.85;83.96
70815;BME280;58428;49.478;10.986;2022-09-29T07:49:14;97072.59;;;8.90;83.65
70815;BME280;58428;49.478;10.986;2022-09-29T07:51:39;97062.84;;;8.85;84.20
70815;BME280;58428;49.478;10.986;2022-09-29T07:54:05;97074.94;;;8.76;83.52
70815;BME280;58428;49.478;10.986;2022-09-29T07:56:31;97074.41;;;8.86;84.24
70815;BME280;58428;49.478;10.986;2022-09-29T07:58:57;97075.03;;;8.95;84.10
70815;BME280;58428;49.478;10.986;2022-09-29T08:01:28;97072.41;;;9.29;84.21
70815;BME280;58428;49.478;10.986;2022-09-29T08:03:54;97071.56;;;9.74;84.23
70815;BME280;58428;49.478;10.986;2022-09-29T08:06:22;97078.00;;;10.19;83.20
70815;BME280;58428;49.478;10.986;2022-09-29T08:08:48;97072.94;;;10.18;82.39
70815;BME280;58428;49.478;10.986;2022-09-29T08:11:16;97065.63;;;10.37;81.06
70815;BME280;58428;49.478;10.986;2022-09-29T08:13:42;97063.06;;;10.63;80.78
70815;BME280;58428;49.478;10.986;2022-09-29T08:16:10;97066.81;;;10.58;79.54
70815;BME280;58428;49.478;10.986;2022-09-29T08:18:38;97062.84;;;10.52;78.58
70815;BME280;58428;49.478;10.986;2022-09-29T08:21:04;97060.34;;;10.63;78.63
70815;BME280;58428;49.478;10.986;2022-09-29T08:23:37;97062.97;;;10.59;78.64
70815;BME280;58428;49.478;10.986;2022-09-29T08:26:04;97057.06;;;10.54;78.13
70815;BME280;58428;49.478;10.986;2022-09-29T08:28:33;97063.31;;;10.76;78.70
70815;BME280;58428;49.478;10.986;2022-09-29T08:31:07;97066.50;;;11.04;78.42
70815;BME280;58428;49.478;10.986;2022-09-29T08:33:33;97057.19;;;11.24;77.74
70815;BME280;58428;49.478;10.986;2022-09-29T08:36:00;97064.59;;;11.49;76.74
70815;BME280;58428;49.478;10.986;2022-09-29T08:38:27;97064.84;;;11.66;76.65
70815;BME280;58428;49.478;10.986;2022-09-29T08:40:56;97058.97;;;11.61;75.64
70815;BME280;58428;49.478;10.986;2022-09-29T08:43:33;97058.75;;;11.73;75.55
70815;BME280;58428;49.478;10.986;2022-09-29T08:48:48;97070.53;;;11.36;75.87
70815;BME280;58428;49.478;10.986;2022-09-29T08:51:35;97067.78;;;11.54;75.01
70815;BME280;58428;49.478;10.986;2022-09-29T08:54:46;97070.31;;;11.70;75.31
70815;BME280;58428;49.478;10.986;2022-09-29T08:57:15;97074.66;;;11.74;74.41
70815;BME280;58428;49.478;10.986;2022-09-29T08:59:42;97069.69;;;11.79;74.53
70815;BME280;58428;49.478;10.986;2022-09-29T09:16:55;97066.34;;;12.48;72.98
70815;BME280;58428;49.478;10.986;2022-09-29T09:25:30;97068.84;;;12.30;72.12
70815;BME280;58428;49.478;10.986;2022-09-29T09:28:21;97080.69;;;12.48;72.56
70815;BME280;58428;49.478;10.986;2022-09-29T09:31:01;97076.94;;;12.59;71.94
70815;BME280;58428;49.478;10.986;2022-09-29T09:37:00;97079.97;;;12.51;71.74
70815;BME280;58428;49.478;10.986;2022-09-29T09:39:35;97077.72;;;12.60;71.88
70815;BME280;58428;49.478;10.986;2022-09-29T09:42:07;97069.63;;;12.63;71.61
70815;BME280;58428;49.478;10.986;2022-09-29T09:44:43;97076.69;;;12.68;72.20
70815;BME280;58428;49.478;10.986;2022-09-29T09:47:41;97075.69;;;12.83;72.36
70815;BME280;58428;49.478;10.986;2022-09-29T09:50:15;97080.03;;;12.90;72.40
70815;BME280;58428;49.478;10.986;2022-09-29T09:52:51;97075.16;;;13.06;72.25
70815;BME280;58428;49.478;10.986;2022-09-29T09:55:21;97081.56;;;13.24;72.04
70815;BME280;58428;49.478;10.986;2022-09-29T10:00:44;97080.78;;;13.27;71.15
70815;BME280;58428;49.478;10.986;2022-09-29T10:03:12;97078.00;;;13.17;70.97
70815;BME280;58428;49.478;10.986;2022-09-29T10:05:42;97074.91;;;13.18;70.85
70815;BME280;58428;49.478;10.986;2022-09-29T10:08:30;97081.84;;;13.16;71.05
70815;BME280;58428;49.478;10.986;2022-09-29T10:11:03;97081.84;;;13.16;70.77
70815;BME280;58428;49.478;10.986;2022-09-29T10:13:30;97081.28;;;13.36;70.77
70815;BME280;58428;49.478;10.986;2022-09-29T10:16:04;97078.00;;;13.63;70.38
70815;BME280;58428;49.478;10.986;2022-09-29T10:18:43;97080.47;;;13.78;70.49
70815;BME280;58428;49.478;10.986;2022-09-29T10:23:58;97076.63;;;13.86;68.83
70815;BME280;58428;49.478;10.986;2022-09-29T10:26:37;97078.16;;;13.87;69.07
70815;BME280;58428;49.478;10.986;2022-09-29T10:29:36;97070.84;;;13.95;69.16
70815;BME280;58428;49.478;10.986;2022-09-29T10:34:40;97081.41;;;14.03;69.07
70815;BME280;58428;49.478;10.986;2022-09-29T10:37:25;97081.44;;;14.06;68.95
70815;BME280;58428;49.478;10.986;2022-09-29T10:42:43;97071.50;;;14.41;68.63
70815;BME280;58428;49.478;10.986;2022-09-29T10:45:21;97078.16;;;14.47;67.65
70815;BME280;58428;49.478;10.986;2022-09-29T10:47:48;97076.19;;;14.41;67.63
70815;BME280;58428;49.478;10.986;2022-09-29T10:50:34;97076.16;;;14.31;67.95
70815;BME280;58428;49.478;10.986;2022-09-29T10:53:14;97071.53;;;14.45;68.42
70815;BME280;58428;49.478;10.986;2022-09-29T10:55:52;97084.03;;;14.56;67.79
70815;BME280;58428;49.478;10.986;2022-09-29T10:58:32;97090.28;;;14.64;66.78
70815;BME280;58428;49.478;10.986;2022-09-29T11:01:14;97090.31;;;14.67;66.35
70815;BME280;58428;49.478;10.986;2022-09-29T11:03:56;97089.59;;;14.91;65.42
70815;BME280;58428;49.478;10.986;2022-09-29T11:06:38;97094.75;;;15.16;65.58
70815;BME280;58428;49.478;10.986;2022-09-29T11:09:27;97091.69;;;15.49;64.78
70815;BME280;58428;49.478;10.986;2022-09-29T11:11:57;97089.72;;;15.84;64.54
70815;BME280;58428;49.478;10.986;2022-09-29T11:17:01;97088.09;;;16.38;63.29
70815;BME280;58428;49.478;10.986;2022-09-29T11:19:30;97095.16;;;16.08;62.15
70815;BME280;58428;49.478;10.986;2022-09-29T11:27:14;97096.34;;;16.28;60.43
70815;BME280;58428;49.478;10.986;2022-09-29T11:35:45;97103.38;;;15.87;60.30
70815;BME280;58428;49.478;10.986;2022-09-29T11:43:53;97102.56;;;16.08;60.55
70815;BME280;58428;49.478;10.986;2022-09-29T11:46:33;97102.56;;;16.28;60.53
70815;BME280;58428;49.478;10.986;2022-09-29T12:00:16;97106.88;;;15.60;60.37
70815;BME280;58428;49.478;10.986;2022-09-29T12:14:46;97107.25;;;16.07;60.31
70815;BME280;58428;49.478;10.986;2022-09-29T12:17:13;97101.41;;;16.05;58.86
70815;BME280;58428;49.478;10.986;2022-09-29T12:19:43;97102.97;;;16.03;59.39
70815;BME280;58428;49.478;10.986;2022-09-29T12:22:16;97099.09;;;15.97;59.69
70815;BME280;58428;49.478;10.986;2022-09-29T12:24:49;97098.66;;;15.36;59.48
70815;BME280;58428;49.478;10.986;2022-09-29T12:27:22;97105.31;;;15.35;60.28
70815;BME280;58428;49.478;10.986;2022-09-29T12:30:28;97097.13;;;15.42;60.58
70815;BME280;58428;49.478;10.986;2022-09-29T12:33:14;97100.63;;;15.63;59.55
70815;BME280;58428;49.478;10.986;2022-09-29T12:39:00;97094.41;;;15.73;59.94
70815;BME280;58428;49.478;10.986;2022-09-29T12:41:30;97101.03;;;15.41;59.43
70815;BME280;58428;49.478;10.986;2022-09-29T12:50:03;97101.00;;;15.34;60.85
70815;BME280;58428;49.478;10.986;2022-09-29T12:52:40;97100.63;;;15.36;61.10
70815;BME280;58428;49.478;10.986;2022-09-29T12:55:17;97105.69;;;15.41;60.77
70815;BME280;58428;49.478;10.986;2022-09-29T12:57:45;97097.13;;;15.42;60.93
70815;BME280;58428;49.478;10.986;2022-09-29T13:00:14;97096.34;;;15.45;60.61
70815;BME280;58428;49.478;10.986;2022-09-29T13:03:15;97099.44;;;15.30;60.62
70815;BME280;58428;49.478;10.986;2022-09-29T13:06:35;97102.53;;;15.14;60.70
70815;BME280;58428;49.478;10.986;2022-09-29T13:20:47;97100.41;;;14.67;60.58
70815;BME280;58428;49.478;10.986;2022-09-29T13:26:25;97109.78;;;14.02;61.57
70815;BME280;58428;49.478;10.986;2022-09-29T13:28:56;97098.97;;;14.12;62.11
70815;BME280;58428;49.478;10.986;2022-09-29T13:31:34;97106.41;;;14.26;61.73
70815;BME280;58428;49.478;10.986;2022-09-29T13:34:02;97103.25;;;14.13;61.79
70815;BME280;58428;49.478;10.986;2022-09-29T13:36:38;97114.91;;;14.14;62.18
70815;BME280;58428;49.478;10.986;2022-09-29T13:39:49;97114.16;;;14.20;61.87
70815;BME280;58428;49.478;10.986;2022-09-29T13:41:54;97121.47;;;14.13;61.93
70815;BME280;58428;49.478;10.986;2022-09-29T13:44:21;97129.25;;;14.11;61.26
70815;BME280;58428;49.478;10.986;2022-09-29T13:46:48;97126.16;;;14.12;61.40
70815;BME280;58428;49.478;10.986;2022-09-29T13:49:15;97136.69;;;14.17;60.31
70815;BME280;58428;49.478;10.986;2022-09-29T13:54:40;97143.63;;;14.08;61.71
70815;BME280;58428;49.478;10.986;2022-09-29T13:57:31;97145.53;;;14.04;63.06
70815;BME280;58428;49.478;10.986;2022-09-29T14:02:42;97155.25;;;13.23;65.99
70815;BME280;58428;49.478;10.986;2022-09-29T14:07:49;97150.81;;;13.44;66.62
70815;BME280;58428;49.478;10.986;2022-09-29T14:10:58;97156.25;;;13.44;67.06
70815;BME280;58428;49.478;10.986;2022-09-29T14:13:48;97153.97;;;13.49;66.52
70815;BME280;58428;49.478;10.986;2022-09-29T14:16:43;97157.19;;;13.61;65.07
70815;BME280;58428;49.478;10.986;2022-09-29T14:22:02;97156.78;;;13.60;62.88
70815;BME280;58428;49.478;10.986;2022-09-29T14:27:33;97167.84;;;13.41;63.54
70815;BME280;58428;49.478;10.986;2022-09-29T14:38:05;97161.50;;;13.26;67.42
70815;BME280;58428;49.478;10.986;2022-09-29T14:40:33;97174.22;;;13.19;67.32
70815;BME280;58428;49.478;10.986;2022-09-29T14:43:04;97172.59;;;13.11;67.40
70815;BME280;58428;49.478;10.986;2022-09-29T15:03:27;97197.97;;;13.25;68.20
70815;BME280;58428;49.478;10.986;2022-09-29T15:06:24;97197.50;;;13.17;67.63
70815;BME280;58428;49.478;10.986;2022-09-29T15:11:24;97207.69;;;12.94;68.39
70815;BME280;58428;49.478;10.986;2022-09-29T15:13:57;97212.88;;;13.06;68.21
70815;BME280;58428;49.478;10.986;2022-09-29T15:16:30;97215.75;;;13.20;67.53
70815;BME280;58428;49.478;10.986;2022-09-29T15:21:42;97223.59;;;12.95;66.48
70815;BME280;58428;49.478;10.986;2022-09-29T15:31:10;97224.91;;;13.08;65.55
70815;BME280;58428;49.478;10.986;2022-09-29T15:33:39;97222.19;;;13.08;65.35
70815;BME280;58428;49.478;10.986;2022-09-29T15:36:24;97226.53;;;13.13;65.52
70815;BME280;58428;49.478;10.986;2022-09-29T15:39:40;97227.72;;;13.15;65.26
70815;BME280;58428;49.478;10.986;2022-09-29T15:41:41;97240.34;;;13.01;65.10
70815;BME280;58428;49.478;10.986;2022-09-29T15:44:14;97240.16;;;12.87;65.49
70815;BME280;58428;49.478;10.986;2022-09-29T15:46:55;97240.22;;;12.90;65.39
70815;BME280;58428;49.478;10.986;2022-09-29T15:49:27;97255.72;;;12.90;65.34
70815;BME280;58428;49.478;10.986;2022-09-29T15:52:02;97251.47;;;12.92;65.37
70815;BME280;58428;49.478;10.986;2022-09-29T15:57:52;97263.19;;;12.71;65.13
70815;BME280;58428;49.478;10.986;2022-09-29T16:05:37;97271.75;;;12.47;65.91
70815;BME280;58428;49.478;10.986;2022-09-29T16:08:18;97264.44;;;12.51;66.24
70815;BME280;58428;49.478;10.986;2022-09-29T16:11:01;97277.00;;;12.37;66.77
70815;BME280;58428;49.478;10.986;2022-09-29T16:13:31;97269.72;;;12.41;67.11
70815;BME280;58428;49.478;10.986;2022-09-29T16:16:01;97269.88;;;12.29;67.37
70815;BME280;58428;49.478;10.986;2022-09-29T16:21:21;97282.44;;;12.14;68.61
70815;BME280;58428;49.478;10.986;2022-09-29T16:26:52;97285.34;;;12.03;68.58
70815;BME280;58428;49.478;10.986;2022-09-29T16:29:40;97281.63;;;11.88;69.28
70815;BME280;58428;49.478;10.986;2022-09-29T16:41:28;97288.31;;;11.94;69.54
70815;BME280;58428;49.478;10.986;2022-09-29T16:49:35;97286.84;;;11.78;70.54
70815;BME280;58428;49.478;10.986;2022-09-29T16:52:23;97285.50;;;11.69;71.36
70815;BME280;58428;49.478;10.986;2022-09-29T16:54:52;97291.44;;;11.55;71.43
70815;BME280;58428;49.478;10.986;2022-09-29T16:57:28;97295.00;;;11.40;72.17
70815;BME280;58428;49.478;10.986;2022-09-29T17:00:05;97300.41;;;11.40;71.86